Time;durP1;ratioP1;P1;durP2;ratioP2;P2;SDS_P1;SDS_P2;PMS_P1;PMS_P2;Temp;Humidity;BMP_temperature;BMP_pressure;BME280_temperature;BME280_humidity;BME280_pressure;Samples;Min_cycle;Max_cycle;Signal;HPM_P1;HPM_P2
2021/03/24 00:01:19;;;;;;;6.22;2.70;;;;;;;-2.07;71.23;99272.47;3549641;27;20427;-49
2021/03/24 00:03:00;;;;;;;6.43;3.13;;;;;;;-2.08;71.39;99275.78;3550708;27;20513;-49
2021/03/24 00:04:42;;;;;;;5.60;2.75;;;;;;;-2.08;71.32;99272.38;3551217;27;20049;-49
2021/03/24 00:06:23;;;;;;;9.57;2.80;;;;;;;-2.09;71.40;99274.06;3551230;27;20515;-49
2021/03/24 00:08:06;;;;;;;5.95;2.80;;;;;;;-2.09;71.12;99281.69;3552804;27;20054;-50
2021/03/24 00:09:50;;;;;;;7.22;2.95;;;;;;;-2.10;71.09;99281.59;3549310;27;20050;-50
2021/03/24 00:11:32;;;;;;;6.32;2.75;;;;;;;-2.10;71.08;99279.91;3552010;27;20050;-49
2021/03/24 00:13:14;;;;;;;4.80;2.70;;;;;;;-2.10;71.51;99281.59;3548365;27;20446;-50
2021/03/24 00:14:55;;;;;;;9.10;2.63;;;;;;;-2.10;71.53;99274.81;3549217;27;20504;-51
2021/03/24 00:16:37;;;;;;;5.82;3.60;;;;;;;-2.09;71.50;99288.41;3552444;27;20051;-48
2021/03/24 00:18:19;;;;;;;7.22;2.20;;;;;;;-2.09;71.48;99286.75;3549021;27;20419;-50
2021/03/24 00:20:01;;;;;;;3.70;1.90;;;;;;;-2.08;71.27;99280.00;3552617;27;20614;-52
2021/03/24 00:21:42;;;;;;;4.63;2.13;;;;;;;-2.08;71.31;99293.56;3549016;27;20054;-49
2021/03/24 00:23:24;;;;;;;4.13;2.05;;;;;;;-2.06;71.33;99297.06;3552072;27;20046;-50
2021/03/24 00:25:07;;;;;;;3.80;2.15;;;;;;;-2.05;71.31;99295.44;3551968;27;20092;-50
2021/03/24 00:26:49;;;;;;;6.68;2.30;;;;;;;-2.05;71.26;99293.75;3550294;27;20043;-49
2021/03/24 00:28:30;;;;;;;3.50;1.90;;;;;;;-2.03;71.24;99301.47;3551101;27;20054;-51
2021/03/24 00:30:14;;;;;;;4.80;2.42;;;;;;;-2.03;71.27;99298.94;3549143;27;20049;-49
2021/03/24 00:31:56;;;;;;;3.83;2.30;;;;;;;-2.03;71.20;99301.47;3552659;27;20058;-49
2021/03/24 00:33:37;;;;;;;5.95;2.40;;;;;;;-2.02;71.32;99293.03;3548829;27;20043;-50
2021/03/24 00:35:19;;;;;;;4.53;1.92;;;;;;;-2.02;71.29;99295.59;3551599;27;20455;-50
2021/03/24 00:37:00;;;;;;;3.55;2.05;;;;;;;-2.01;71.25;99299.88;3551174;27;20046;-49
2021/03/24 00:38:42;;;;;;;3.53;1.98;;;;;;;-2.01;71.18;99291.41;3548910;27;20043;-50
2021/03/24 00:40:28;;;;;;;4.95;2.65;;;;;;;-2.01;71.33;99304.09;3552240;27;20439;-50
2021/03/24 00:42:09;;;;;;;4.07;2.08;;;;;;;-2.01;71.35;99297.34;3550035;27;20551;-49
2021/03/24 00:43:51;;;;;;;3.60;2.22;;;;;;;-2.02;71.59;99290.50;3552515;27;20053;-48
2021/03/24 00:45:33;;;;;;;4.78;2.10;;;;;;;-2.01;71.68;99296.47;3549858;27;20046;-49
2021/03/24 00:47:15;;;;;;;4.43;1.98;;;;;;;-2.01;71.46;99296.47;3550767;27;20412;-51
2021/03/24 00:48:56;;;;;;;3.80;2.30;;;;;;;-2.00;71.50;99288.06;3553857;27;20054;-52
2021/03/24 00:50:38;;;;;;;3.40;1.90;;;;;;;-2.00;71.64;99295.66;3550490;27;20047;-56
2021/03/24 00:52:19;;;;;;;4.32;1.98;;;;;;;-1.99;71.45;99307.59;3565470;27;20122;-55
2021/03/24 00:54:01;;;;;;;5.35;1.98;;;;;;;-1.99;71.55;99299.97;3553608;27;20492;-55
2021/03/24 00:55:42;;;;;;;4.07;2.05;;;;;;;-2.00;71.63;99304.19;3554095;27;20054;-55
2021/03/24 00:57:23;;;;;;;4.55;2.00;;;;;;;-2.01;71.62;99301.56;3551705;27;20072;-55
2021/03/24 00:59:05;;;;;;;6.57;2.30;;;;;;;-2.01;71.38;99306.66;3553761;27;20043;-55
2021/03/24 01:00:48;;;;;;;4.97;2.42;;;;;;;-2.03;71.68;99305.69;3552555;27;20043;-56
2021/03/24 01:02:30;;;;;;;4.45;2.20;;;;;;;-2.05;71.71;99308.13;3551070;27;20388;-56
2021/03/24 01:04:11;;;;;;;5.95;2.22;;;;;;;-2.06;71.33;99314.00;3553670;27;20054;-55
2021/03/24 01:05:53;;;;;;;4.93;2.10;;;;;;;-2.07;71.44;99319.84;3553417;27;20058;-56
2021/03/24 01:07:34;;;;;;;4.65;2.10;;;;;;;-2.08;71.63;99318.97;3554669;27;20054;-56
2021/03/24 01:09:15;;;;;;;3.15;1.95;;;;;;;-2.09;71.82;99326.50;3551146;27;20057;-56
2021/03/24 01:10:57;;;;;;;4.47;2.17;;;;;;;-2.10;71.60;99323.09;3552548;27;20057;-56
2021/03/24 01:12:38;;;;;;;5.03;2.67;;;;;;;-2.10;71.63;99329.88;3563296;27;20676;-56
2021/03/24 01:14:19;;;;;;;3.83;2.33;;;;;;;-2.11;71.58;99331.50;3553646;27;20050;-56
2021/03/24 01:16:01;;;;;;;4.53;2.30;;;;;;;-2.12;71.50;99328.91;3553151;27;20503;-55
2021/03/24 01:17:43;;;;;;;6.82;2.38;;;;;;;-2.13;71.47;99334.75;3550852;27;20415;-56
2021/03/24 01:19:25;;;;;;;4.00;2.10;;;;;;;-2.14;71.50;99335.53;3554864;27;20047;-55
2021/03/24 01:21:08;;;;;;;4.47;2.08;;;;;;;-2.15;71.31;99337.22;3554404;27;20053;-54
2021/03/24 01:22:49;;;;;;;3.67;1.90;;;;;;;-2.17;71.48;99332.84;3553087;27;20058;-56
2021/03/24 01:24:31;;;;;;;6.40;2.85;;;;;;;-2.19;71.69;99335.28;3552599;27;20046;-54
2021/03/24 01:26:12;;;;;;;4.90;2.20;;;;;;;-2.20;71.63;99338.59;3552429;27;20046;-56
2021/03/24 01:27:55;;;;;;;5.05;2.45;;;;;;;-2.21;71.57;99338.50;3552913;27;20514;-55
2021/03/24 01:29:36;;;;;;;5.38;2.38;;;;;;;-2.21;71.35;99335.97;3550984;27;20100;-55
2021/03/24 01:31:18;;;;;;;5.50;2.50;;;;;;;-2.20;71.25;99346.22;3554464;27;20522;-55
2021/03/24 01:33:00;;;;;;;4.20;2.30;;;;;;;-2.20;71.32;99346.22;3553118;27;20498;-56
2021/03/24 01:34:42;;;;;;;6.97;2.47;;;;;;;-2.21;71.17;99341.94;3552973;27;20049;-56
2021/03/24 01:36:23;;;;;;;5.68;2.30;;;;;;;-2.20;71.05;99342.81;3552553;27;20515;-48
2021/03/24 01:38:05;;;;;;;5.30;1.98;;;;;;;-2.19;71.19;99347.09;3552318;27;20047;-50
2021/03/24 01:39:47;;;;;;;5.95;2.50;;;;;;;-2.20;71.27;99353.84;3553443;27;20084;-50
2021/03/24 01:41:29;;;;;;;7.53;2.50;;;;;;;-2.21;71.32;99354.66;3550538;27;20645;-49
2021/03/24 01:43:19;;;;;;;3.58;2.03;;;;;;;-2.21;71.37;99351.22;3554587;27;20087;-56
2021/03/24 01:45:10;;;;;;;3.15;1.90;;;;;;;-2.21;71.30;99351.22;3553292;27;20100;-51
2021/03/24 01:46:52;;;;;;;5.53;2.35;;;;;;;-2.20;71.01;99355.53;3551909;27;20039;-50
2021/03/24 01:48:35;;;;;;;5.70;2.22;;;;;;;-2.20;71.14;99352.97;3551973;27;20055;-49
2021/03/24 01:50:20;;;;;;;5.28;2.53;;;;;;;-2.21;71.29;99346.13;3552902;27;20039;-49
2021/03/24 01:52:06;;;;;;;4.43;2.28;;;;;;;-2.22;71.34;99354.56;3554107;27;20078;-50
2021/03/24 01:53:49;;;;;;;5.00;2.47;;;;;;;-2.22;71.40;99359.63;3550700;27;20043;-50
2021/03/24 01:55:30;;;;;;;5.53;2.40;;;;;;;-2.25;71.40;99362.84;3552745;27;20077;-48
2021/03/24 01:57:15;;;;;;;5.47;2.38;;;;;;;-2.26;71.40;99361.13;3551597;27;20051;-50
2021/03/24 01:58:57;;;;;;;5.57;2.38;;;;;;;-2.28;71.73;99358.47;3551268;27;20061;-50
2021/03/24 02:00:45;;;;;;;5.20;2.63;;;;;;;-2.30;71.53;99359.16;3553967;27;20051;-49
2021/03/24 02:02:29;;;;;;;5.15;2.63;;;;;;;-2.33;71.56;99357.34;3550667;27;20137;-49
2021/03/24 02:04:11;;;;;;;4.93;2.50;;;;;;;-2.33;71.80;99359.88;3553160;27;20058;-49
2021/03/24 02:05:54;;;;;;;4.88;2.22;;;;;;;-2.35;71.75;99361.44;3550058;27;20057;-50
2021/03/24 02:07:47;;;;;;;4.47;2.47;;;;;;;-2.37;71.93;99362.13;3553088;27;20109;-49
2021/03/24 02:09:35;;;;;;;6.32;3.10;;;;;;;-2.37;72.01;99357.94;3552986;27;20054;-50
2021/03/24 02:11:20;;;;;;;5.82;2.78;;;;;;;-2.37;72.25;99367.22;3550377;27;20459;-48
2021/03/24 02:13:06;;;;;;;4.53;2.13;;;;;;;-2.37;72.25;99362.13;3552299;27;20047;-55
2021/03/24 02:14:51;;;;;;;3.75;2.30;;;;;;;-2.36;72.04;99364.75;3550725;27;20047;-49
2021/03/24 02:16:36;;;;;;;4.35;2.13;;;;;;;-2.37;72.03;99370.66;3550740;27;20054;-49
2021/03/24 02:18:21;;;;;;;5.35;2.50;;;;;;;-2.37;72.16;99370.66;3553544;27;20134;-49
2021/03/24 02:20:11;;;;;;;5.55;2.35;;;;;;;-2.39;72.22;99369.66;3550327;27;20047;-50
2021/03/24 02:21:54;;;;;;;4.85;2.17;;;;;;;-2.38;72.14;99373.09;3553877;27;20043;-49
2021/03/24 02:23:46;;;;;;;4.93;2.53;;;;;;;-2.38;72.22;99360.38;3549347;27;20051;-50
2021/03/24 02:25:31;;;;;;;6.43;2.53;;;;;;;-2.40;72.30;99365.38;3552768;27;20043;-50
2021/03/24 02:27:17;;;;;;;8.52;2.67;;;;;;;-2.42;72.17;99366.94;3553966;27;20058;-50
2021/03/24 02:29:04;;;;;;;5.82;2.42;;;;;;;-2.43;72.19;99363.50;3550415;27;20055;-51
2021/03/24 02:30:47;;;;;;;8.93;2.80;;;;;;;-2.42;72.13;99372.03;3553810;27;20051;-50
2021/03/24 02:32:33;;;;;;;5.60;2.40;;;;;;;-2.44;72.37;99374.47;3550293;27;20134;-50
2021/03/24 02:34:19;;;;;;;4.57;2.40;;;;;;;-2.44;72.44;99373.59;3551863;27;20042;-50
2021/03/24 02:36:05;;;;;;;3.35;2.10;;;;;;;-2.44;72.38;99374.47;3552243;27;20499;-49
2021/03/24 02:37:47;;;;;;;4.82;2.42;;;;;;;-2.43;72.29;99382.97;3550919;27;20051;-49
2021/03/24 02:39:32;;;;;;;5.53;2.50;;;;;;;-2.45;72.26;99382.88;3553598;27;20249;-49
2021/03/24 02:41:15;;;;;;;6.45;2.75;;;;;;;-2.46;72.45;99383.66;3550372;27;20084;-49
2021/03/24 02:42:59;;;;;;;3.80;2.40;;;;;;;-2.47;72.72;99379.34;3552768;27;20054;-56
2021/03/24 02:44:42;;;;;;;7.97;2.70;;;;;;;-2.48;72.59;99379.25;3551255;27;20338;-56
2021/03/24 02:46:24;;;;;;;5.53;2.70;;;;;;;-2.48;72.68;99385.22;3550404;27;20054;-56
2021/03/24 02:48:09;;;;;;;4.78;2.35;;;;;;;-2.48;72.55;99376.72;3553676;27;20129;-56
2021/03/24 02:49:52;;;;;;;5.05;3.00;;;;;;;-2.48;72.60;99382.66;3550087;27;20133;-55
2021/03/24 02:51:36;;;;;;;5.10;2.60;;;;;;;-2.48;72.54;99384.34;3553713;27;20051;-57
2021/03/24 02:53:18;;;;;;;5.82;3.15;;;;;;;-2.48;72.64;99385.22;3551948;27;20051;-56
2021/03/24 02:55:00;;;;;;;7.15;3.00;;;;;;;-2.48;72.69;99395.38;3551251;27;20050;-56
2021/03/24 02:56:41;;;;;;;5.80;2.47;;;;;;;-2.48;72.55;99391.97;3552398;27;20047;-56
2021/03/24 02:58:24;;;;;;;5.38;2.47;;;;;;;-2.49;72.55;99390.22;3552137;27;20426;-56
2021/03/24 03:00:07;;;;;;;4.05;2.40;;;;;;;-2.49;72.52;99393.63;3553473;27;20070;-55
2021/03/24 03:01:57;;;;;;;5.25;2.97;;;;;;;-2.50;72.87;99394.41;3550818;27;20134;-56
2021/03/24 03:03:43;;;;;;;4.82;3.20;;;;;;;-2.52;73.03;99395.97;3552716;27;20587;-55
2021/03/24 03:05:28;;;;;;;5.10;2.50;;;;;;;-2.51;72.96;99399.38;3551559;27;20419;-56
2021/03/24 03:07:17;;;;;;;6.40;2.92;;;;;;;-2.53;72.99;99394.25;3550965;27;20153;-50
2021/03/24 03:09:04;;;;;;;5.00;2.78;;;;;;;-2.53;72.93;99398.41;3539060;28;20420;-49
2021/03/24 03:10:54;;;;;;;6.32;2.88;;;;;;;-2.55;72.98;99397.44;3549445;27;20051;-49
2021/03/24 03:12:43;;;;;;;6.30;3.10;;;;;;;-2.55;73.27;99397.44;3552298;27;20065;-50
2021/03/24 03:14:31;;;;;;;6.05;2.75;;;;;;;-2.56;73.07;99391.50;3550020;27;20420;-49
2021/03/24 03:16:19;;;;;;;8.15;2.72;;;;;;;-2.56;73.44;99394.03;3549858;27;20507;-49
2021/03/24 03:18:07;;;;;;;6.25;3.30;;;;;;;-2.56;73.20;99394.03;3538576;27;20047;-50
2021/03/24 03:19:55;;;;;;;5.38;2.38;;;;;;;-2.56;73.29;99399.13;3548455;27;20047;-50
2021/03/24 03:21:41;;;;;;;4.43;2.30;;;;;;;-2.55;73.51;99400.00;3551039;27;20042;-50
2021/03/24 03:23:40;;;;;;;5.97;2.67;;;;;;;-2.56;73.41;99394.03;3552024;27;20047;-49
2021/03/24 03:25:26;;;;;;;8.77;3.10;;;;;;;-2.56;73.42;99405.88;3550790;27;20496;-49
2021/03/24 03:27:12;;;;;;;5.75;3.15;;;;;;;-2.54;73.50;99402.63;3553298;27;20185;-50
2021/03/24 03:28:58;;;;;;;5.60;2.40;;;;;;;-2.54;73.60;99404.31;3551261;27;20050;-50
2021/03/24 03:30:41;;;;;;;4.70;2.75;;;;;;;-2.53;73.71;99409.47;3550333;27;20108;-51
2021/03/24 03:32:30;;;;;;;7.63;3.08;;;;;;;-2.53;73.33;99403.50;3552311;27;20524;-50
2021/03/24 03:34:15;;;;;;;6.03;2.85;;;;;;;-2.53;73.38;99409.47;3549780;27;20047;-49
2021/03/24 03:35:57;;;;;;;7.00;3.15;;;;;;;-2.53;73.14;99414.56;3552915;27;20112;-49
2021/03/24 03:37:38;;;;;;;4.65;2.72;;;;;;;-2.53;73.26;99412.03;3549567;27;20055;-50
2021/03/24 03:39:23;;;;;;;6.43;3.05;;;;;;;-2.52;73.09;99411.22;3551718;27;20050;-50
2021/03/24 03:41:08;;;;;;;7.50;3.10;;;;;;;-2.51;73.18;99412.09;3553492;27;20050;-50
2021/03/24 03:42:52;;;;;;;5.78;2.90;;;;;;;-2.50;73.17;99408.78;3549802;27;20043;-50
2021/03/24 03:44:35;;;;;;;6.18;3.10;;;;;;;-2.52;73.37;99411.22;3552841;27;20690;-49
2021/03/24 03:46:23;;;;;;;7.85;3.17;;;;;;;-2.50;73.34;99416.38;3549394;27;20070;-52
2021/03/24 03:48:07;;;;;;;4.93;2.88;;;;;;;-2.49;73.50;99423.25;3552685;27;20130;-48
2021/03/24 03:49:50;;;;;;;6.13;3.17;;;;;;;-2.49;73.33;99420.69;3550228;27;20053;-49
2021/03/24 03:51:40;;;;;;;9.32;2.83;;;;;;;-2.50;73.37;99424.88;3550168;27;20062;-49
2021/03/24 03:53:25;;;;;;;5.88;2.42;;;;;;;-2.49;72.99;99415.63;3567071;27;20145;-55
2021/03/24 03:55:19;;;;;;;6.82;2.90;;;;;;;-2.48;73.39;99419.91;3554465;27;20046;-56
2021/03/24 03:57:04;;;;;;;5.60;2.92;;;;;;;-2.47;72.99;99424.22;3552423;27;20054;-57
2021/03/24 03:58:54;;;;;;;5.97;3.05;;;;;;;-2.46;73.15;99426.84;3552714;27;20460;-56
2021/03/24 04:00:40;;;;;;;5.57;3.10;;;;;;;-2.47;73.29;99427.63;3549303;27;20058;-56
2021/03/24 04:02:30;;;;;;;5.57;3.25;;;;;;;-2.46;73.12;99425.94;3553041;27;20095;-56
2021/03/24 04:04:19;;;;;;;7.82;3.30;;;;;;;-2.46;73.15;99426.84;3549535;27;20042;-56
2021/03/24 04:06:05;;;;;;;6.18;3.08;;;;;;;-2.44;73.04;99429.47;3551299;27;20575;-56
2021/03/24 04:07:53;;;;;;;6.63;3.55;;;;;;;-2.43;73.08;99434.63;3550462;27;20053;-56
2021/03/24 04:09:39;;;;;;;5.95;3.28;;;;;;;-2.42;73.00;99435.53;3549164;27;20050;-56
2021/03/24 04:11:23;;;;;;;5.90;3.22;;;;;;;-2.39;72.82;99437.34;3552787;27;20053;-56
2021/03/24 04:13:05;;;;;;;;;;;;;;;-2.38;72.92;99439.13;3550364;27;20461;-57
2021/03/24 04:14:48;;;;;;;5.35;3.03;;;;;;;-2.36;72.88;99433.34;3552142;27;19995;-54
2021/03/24 04:16:29;;;;;;;7.10;3.63;;;;;;;-2.34;72.97;99436.84;3549469;27;20049;-56
2021/03/24 04:18:16;;;;;;;6.00;3.10;;;;;;;-2.32;72.87;99440.38;3549634;27;20047;-57
2021/03/24 04:20:02;;;;;;;6.80;3.30;;;;;;;-2.29;72.99;99438.00;3552735;27;20043;-56
2021/03/24 04:21:49;;;;;;;5.32;3.03;;;;;;;-2.27;72.71;99440.66;3548921;27;20130;-56
2021/03/24 04:23:41;;;;;;;7.30;3.35;;;;;;;-2.27;72.86;99440.66;3552617;27;20046;-57
2021/03/24 04:25:27;;;;;;;5.95;3.00;;;;;;;-2.26;72.61;99447.50;3550686;27;20054;-56
2021/03/24 04:27:11;;;;;;;7.25;3.00;;;;;;;-2.25;72.40;99441.63;3550241;27;20087;-56
2021/03/24 04:28:57;;;;;;;5.28;3.15;;;;;;;-2.24;72.56;99445.91;3551071;27;20051;-57
2021/03/24 04:30:43;;;;;;;8.85;3.33;;;;;;;-2.22;72.48;99449.44;3548326;27;20051;-57
2021/03/24 04:32:24;;;;;;;7.38;3.80;;;;;;;-2.22;72.08;99446.88;3552463;27;20580;-56
2021/03/24 04:34:06;;;;;;;6.30;3.22;;;;;;;-2.21;72.09;99450.28;3549072;27;20050;-57
2021/03/24 04:35:51;;;;;;;7.10;3.28;;;;;;;-2.21;72.31;99450.28;3550295;27;20085;-57
2021/03/24 04:37:37;;;;;;;6.70;3.10;;;;;;;-2.20;72.28;99462.22;3552499;27;20051;-56
2021/03/24 04:39:26;;;;;;;6.85;2.70;;;;;;;-2.18;72.17;99461.53;3548925;27;20046;-57
2021/03/24 04:41:13;;;;;;;7.75;3.50;;;;;;;-2.17;72.17;99457.34;3552423;27;20047;-57
2021/03/24 04:43:01;;;;;;;7.30;2.90;;;;;;;-2.14;72.31;99467.66;3548819;27;20648;-55
2021/03/24 04:44:46;;;;;;;18.92;5.43;;;;;;;-2.13;72.36;99467.75;3550315;27;20415;-56
2021/03/24 04:46:33;;;;;;;9.48;3.78;;;;;;;-2.10;72.57;99470.50;3552343;27;20059;-56
2021/03/24 04:48:17;;;;;;;6.32;3.42;;;;;;;-2.08;72.45;99479.09;3548824;27;20453;-56
2021/03/24 04:50:05;;;;;;;6.80;3.38;;;;;;;-2.03;72.10;99473.41;3552405;27;20530;-56
2021/03/24 04:51:47;;;;;;;7.60;3.20;;;;;;;-2.00;72.03;99468.50;3549315;27;20046;-57
2021/03/24 04:53:35;;;;;;;6.95;3.33;;;;;;;-1.96;71.85;99473.00;3550990;27;20043;-57
2021/03/24 04:55:23;;;;;;;6.78;3.38;;;;;;;-1.93;71.55;99484.22;3550607;27;20058;-57
2021/03/24 04:57:06;;;;;;;5.85;3.80;;;;;;;-1.90;71.50;99483.53;3548682;27;20143;-57
2021/03/24 04:58:53;;;;;;;10.68;3.38;;;;;;;-1.88;71.01;99470.13;3552188;27;20497;-57
2021/03/24 05:00:40;;;;;;;6.57;3.30;;;;;;;-1.85;71.25;99474.50;3549039;27;20054;-57
2021/03/24 05:02:27;;;;;;;7.75;3.25;;;;;;;-1.82;71.21;99474.69;3551428;27;20046;-57
2021/03/24 05:04:18;;;;;;;8.15;3.67;;;;;;;-1.80;71.39;99469.72;3552374;27;20046;-57
2021/03/24 05:06:04;;;;;;;5.70;3.42;;;;;;;-1.77;71.14;99470.75;3548445;27;20530;-57
2021/03/24 05:07:51;;;;;;;7.75;3.58;;;;;;;-1.75;70.41;99468.31;3552591;27;20369;-57
2021/03/24 05:09:33;;;;;;;7.43;3.97;;;;;;;-1.72;70.46;99476.09;3548647;27;20059;-57
2021/03/24 05:11:23;;;;;;;9.48;3.50;;;;;;;-1.67;70.59;99477.25;3550994;27;20061;-57
2021/03/24 05:13:13;;;;;;;9.02;3.50;;;;;;;-1.65;70.86;99478.22;3548852;27;20065;-56
2021/03/24 05:15:00;;;;;;;7.97;3.47;;;;;;;-1.60;70.50;99476.81;3550776;27;20050;-57
2021/03/24 05:16:45;;;;;;;8.85;3.65;;;;;;;-1.58;69.99;99484.53;3552011;27;20560;-57
2021/03/24 05:18:27;;;;;;;6.72;3.70;;;;;;;-1.54;69.96;99487.38;3548453;27;20154;-57
2021/03/24 05:20:17;;;;;;;11.68;4.20;;;;;;;-1.51;70.09;99479.03;3551149;27;20179;-56
2021/03/24 05:22:21;;;;;;;8.07;3.60;;;;;;;-1.46;69.69;99482.72;3550050;27;20092;-57
2021/03/24 05:24:05;;;;;;;7.80;3.53;;;;;;;-1.43;69.55;99476.94;3548317;27;20502;-57
2021/03/24 05:25:54;;;;;;;9.70;4.20;;;;;;;-1.39;69.55;99486.50;3551877;27;20507;-56
2021/03/24 05:27:41;;;;;;;11.13;3.72;;;;;;;-1.35;69.30;99485.88;3548901;27;20511;-56
2021/03/24 05:29:26;;;;;;;7.45;3.63;;;;;;;-1.30;68.93;99487.91;3549347;27;20047;-57
2021/03/24 05:31:13;;;;;;;10.57;3.60;;;;;;;-1.24;68.86;99479.75;3551079;27;20053;-57
2021/03/24 05:33:01;;;;;;;6.45;3.20;;;;;;;-1.17;68.17;99489.50;3548058;27;20045;-57
2021/03/24 05:34:44;;;;;;;8.05;3.53;;;;;;;-1.11;68.58;99489.81;3552090;27;20058;-57
2021/03/24 05:36:31;;;;;;;7.63;3.00;;;;;;;-1.01;68.49;99492.88;3549414;27;20530;-57
2021/03/24 05:38:18;;;;;;;5.72;3.47;;;;;;;-0.94;67.78;99493.34;3550967;27;20519;-57
2021/03/24 05:40:09;;;;;;;8.43;4.05;;;;;;;-0.90;67.36;99499.47;3550830;27;20510;-57
2021/03/24 05:41:59;;;;;;;6.78;3.47;;;;;;;-0.86;66.83;99501.41;3550057;27;20070;-57
2021/03/24 05:44:21;;;;;;;8.15;3.28;;;;;;;-0.83;66.90;99500.72;3553608;27;20095;-57
2021/03/24 05:46:15;;;;;;;6.63;3.70;;;;;;;-0.82;66.53;99502.44;3566687;27;20050;-56
2021/03/24 05:48:06;;;;;;;8.65;3.30;;;;;;;-0.80;66.92;99498.31;3554159;27;20051;-50
2021/03/24 05:49:59;;;;;;;8.30;3.25;;;;;;;-0.77;67.23;99504.44;3553111;27;20556;-51
2021/03/24 05:51:56;;;;;;;6.65;3.20;;;;;;;-0.75;66.59;99502.00;3552823;27;20316;-49
2021/03/24 05:54:19;;;;;;;5.05;3.00;;;;;;;-0.76;66.10;99501.13;3550548;27;20107;-50
2021/03/24 05:56:09;;;;;;;7.35;3.85;;;;;;;-0.74;66.81;99503.75;3502004;27;20450;-51
2021/03/24 05:58:03;;;;;;;8.48;3.60;;;;;;;-0.73;66.63;99503.84;3553639;27;20047;-57
2021/03/24 05:59:53;;;;;;;12.57;3.72;;;;;;;-0.71;66.46;99514.13;3550767;27;20053;-57
2021/03/24 06:01:40;;;;;;;5.40;3.00;;;;;;;-0.70;66.02;99509.91;3551839;27;20107;-57
2021/03/24 06:03:46;;;;;;;6.97;3.42;;;;;;;-0.69;66.67;99520.19;3555091;27;20053;-57
2021/03/24 06:05:35;;;;;;;6.20;3.22;;;;;;;-0.67;66.37;99515.19;3552931;27;20095;-57
2021/03/24 06:07:49;;;;;;;8.48;3.63;;;;;;;-0.63;65.88;99522.19;3553895;27;20051;-56
2021/03/24 06:09:42;;;;;;;8.30;3.42;;;;;;;-0.62;66.05;99526.50;3522183;28;20514;-57
2021/03/24 06:11:50;;;;;;;5.03;3.07;;;;;;;-0.61;65.71;99529.09;3547113;27;20062;-57
2021/03/24 06:14:09;;;;;;;7.38;3.78;;;;;;;-0.58;65.71;99533.50;3550520;27;20289;-57
2021/03/24 06:16:11;;;;;;;6.88;3.53;;;;;;;-0.56;65.54;99529.38;3539632;28;20054;-57
2021/03/24 06:18:22;;;;;;;9.15;3.35;;;;;;;-0.56;65.57;99530.25;3551315;27;20163;-57
2021/03/24 06:20:16;;;;;;;7.82;3.53;;;;;;;-0.54;65.65;99531.19;3549986;27;20129;-57
2021/03/24 06:22:05;;;;;;;9.13;3.58;;;;;;;-0.51;65.70;99529.63;3553907;27;20059;-57
2021/03/24 06:24:07;;;;;;;6.88;3.58;;;;;;;-0.48;65.69;99534.88;3549691;27;20419;-57
2021/03/24 06:26:14;;;;;;;11.32;3.75;;;;;;;-0.46;65.65;99526.53;3550028;27;20039;-56
2021/03/24 06:28:12;;;;;;;5.82;3.00;;;;;;;-0.42;65.79;99536.09;3553549;27;20077;-54
2021/03/24 06:30:03;;;;;;;9.27;3.88;;;;;;;-0.37;65.39;99533.81;3553699;27;20046;-57
2021/03/24 06:32:02;;;;;;;9.80;3.53;;;;;;;-0.31;65.61;99535.81;3550068;27;20050;-57
2021/03/24 06:33:59;;;;;;;5.95;3.33;;;;;;;-0.24;65.77;99541.31;3553892;27;20055;-58
2021/03/24 06:35:59;;;;;;;7.65;4.00;;;;;;;-0.21;65.24;99541.50;3551046;27;20056;-58
2021/03/24 06:37:52;;;;;;;5.07;2.97;;;;;;;-0.17;64.60;99543.41;3551381;27;20058;-58
2021/03/24 06:39:55;;;;;;;8.18;3.35;;;;;;;-0.13;64.94;99541.91;3553904;27;20126;-57
2021/03/24 06:42:03;;;;;;;9.70;3.72;;;;;;;-0.10;64.99;99539.53;3552969;27;20061;-58
2021/03/24 06:44:07;;;;;;;8.65;3.13;;;;;;;-0.03;64.66;99551.81;3546121;27;20043;-57
2021/03/24 06:46:10;;;;;;;6.65;3.20;;;;;;;0.03;64.73;99539.41;3549996;27;20043;-58
2021/03/24 06:47:58;;;;;;;8.48;3.67;;;;;;;0.07;64.01;99540.44;3553828;27;20054;-56
2021/03/24 06:49:49;;;;;;;7.35;3.50;;;;;;;0.13;64.10;99543.28;3549866;27;20039;-55
2021/03/24 06:52:04;;;;;;;7.32;4.28;;;;;;;0.27;64.88;99543.16;3553474;27;20074;-57
2021/03/24 06:54:15;;;;;;;9.55;4.05;;;;;;;0.33;63.85;99544.34;3519423;27;20061;-56
2021/03/24 06:56:26;;;;;;;8.80;4.28;;;;;;;0.35;64.23;99539.34;3549898;27;20485;-56
2021/03/24 06:58:55;;;;;;;9.20;4.20;;;;;;;0.32;63.15;99545.16;3552595;27;20070;-57
2021/03/24 07:01:08;;;;;;;9.32;4.47;;;;;;;0.35;63.34;99560.63;3539942;27;20046;-58
2021/03/24 07:03:38;;;;;;;7.90;4.10;;;;;;;0.37;63.83;99551.38;3538885;28;20051;-59
2021/03/24 07:05:47;;;;;;;9.75;4.40;;;;;;;0.41;63.75;99557.50;3480960;28;20049;-60
2021/03/24 07:07:49;;;;;;;7.28;3.92;;;;;;;0.45;63.81;99549.19;3526216;27;20050;-60
2021/03/24 07:09:42;;;;;;;11.30;4.13;;;;;;;0.47;63.31;99557.84;3551085;27;20074;-59
2021/03/24 07:11:42;;;;;;;7.03;4.22;;;;;;;0.49;63.24;99563.00;3551734;27;20042;-58
2021/03/24 07:13:55;;;;;;;6.60;3.95;;;;;;;0.59;63.20;99557.56;3548409;27;20054;-58
2021/03/24 07:15:41;;;;;;;8.70;4.07;;;;;;;0.70;63.34;99561.56;3550281;27;20047;-58
2021/03/24 07:17:49;;;;;;;7.97;4.35;;;;;;;0.73;63.20;99559.16;3552234;27;20054;-57
2021/03/24 07:19:49;;;;;;;11.20;4.72;;;;;;;0.87;63.20;99567.50;3549716;27;20043;-58
2021/03/24 07:22:03;;;;;;;9.48;5.10;;;;;;;1.06;64.12;99569.31;3550706;27;20081;-58
2021/03/24 07:24:22;;;;;;;8.70;3.95;;;;;;;1.28;63.60;99573.81;3538631;28;20150;-58
2021/03/24 07:26:06;;;;;;;10.35;4.13;;;;;;;1.43;61.98;99566.00;3551232;27;20415;-57
2021/03/24 07:28:02;;;;;;;;;;;;;;;1.65;63.19;99567.91;3552104;27;20049;-57
2021/03/24 07:29:58;;;;;;;9.27;4.60;;;;;;;1.88;62.18;99566.44;3515119;28;19958;-56
2021/03/24 07:31:55;;;;;;;11.65;4.40;;;;;;;2.06;61.12;99563.84;3548705;27;20107;-56
2021/03/24 07:33:44;;;;;;;7.70;3.80;;;;;;;2.17;60.42;99555.78;3550411;27;20514;-56
2021/03/24 07:35:38;;;;;;;7.95;4.28;;;;;;;2.26;60.50;99562.19;3538717;28;20051;-56
2021/03/24 07:37:57;;;;;;;7.72;4.25;;;;;;;2.26;60.11;99563.88;3546709;27;20039;-56
2021/03/24 07:39:59;;;;;;;9.13;4.30;;;;;;;2.33;59.80;99569.31;3520184;27;20533;-57
2021/03/24 07:42:25;;;;;;;10.25;4.50;;;;;;;2.38;60.05;99573.75;3538391;28;20054;-57
2021/03/24 07:44:24;;;;;;;7.15;4.03;;;;;;;2.54;61.03;99567.66;3520375;27;20050;-57
2021/03/24 07:46:21;;;;;;;7.05;3.83;;;;;;;2.79;61.71;99567.91;3548291;27;20082;-55
2021/03/24 07:48:19;;;;;;;8.30;4.32;;;;;;;2.98;58.81;99572.13;3550354;27;20077;-55
2021/03/24 07:50:16;;;;;;;11.20;4.10;;;;;;;3.15;59.23;99577.09;3551492;27;20054;-56
2021/03/24 07:52:37;;;;;;;7.82;4.30;;;;;;;3.25;57.94;99567.28;3545717;27;20054;-56
2021/03/24 07:54:26;;;;;;;10.35;4.10;;;;;;;3.33;57.46;99580.41;3551711;27;20554;-55
2021/03/24 07:56:19;;;;;;;7.93;4.18;;;;;;;3.37;58.38;99579.72;3539140;27;20096;-56
2021/03/24 07:58:15;;;;;;;8.85;4.57;;;;;;;3.40;57.60;99584.09;3547141;27;20046;-57
2021/03/24 08:00:06;;;;;;;8.55;4.50;;;;;;;3.48;58.10;99580.16;3550586;27;20066;-56
2021/03/24 08:01:56;;;;;;;10.15;4.80;;;;;;;3.50;57.23;99580.22;3550546;27;20548;-56
2021/03/24 08:03:53;;;;;;;9.13;4.70;;;;;;;3.56;56.76;99576.22;3549005;27;20506;-56
2021/03/24 08:06:09;;;;;;;11.77;4.82;;;;;;;3.66;57.70;99577.44;3552176;27;20086;-56
2021/03/24 08:07:56;;;;;;;8.95;4.70;;;;;;;3.83;58.68;99575.56;3530483;28;20051;-56
2021/03/24 08:10:00;;;;;;;9.70;4.38;;;;;;;3.98;56.43;99577.81;3544332;27;20431;-56
2021/03/24 08:11:52;;;;;;;8.70;4.57;;;;;;;4.07;55.30;99574.72;3535674;27;20495;-56
2021/03/24 08:13:52;;;;;;;10.05;4.60;;;;;;;4.13;56.26;99577.53;3549835;27;20053;-56
2021/03/24 08:15:57;;;;;;;8.18;4.03;;;;;;;4.30;57.24;99578.16;3549008;27;20277;-56
2021/03/24 08:17:46;;;;;;;8.90;4.63;;;;;;;4.41;55.75;99582.03;3551373;27;20058;-56
2021/03/24 08:20:01;;;;;;;8.50;4.78;;;;;;;4.49;55.16;99567.75;3550710;27;20120;-56
2021/03/24 08:21:53;;;;;;;8.48;4.50;;;;;;;4.55;54.62;99569.69;3543602;27;20392;-57
2021/03/24 08:24:10;;;;;;;9.88;4.63;;;;;;;4.65;54.87;99573.44;3551254;27;20074;-55
2021/03/24 08:26:19;;;;;;;6.45;4.35;;;;;;;4.78;54.67;99580.78;3532666;28;20047;-55
2021/03/24 08:28:07;;;;;;;8.15;4.82;;;;;;;4.89;54.53;99576.88;3545655;27;20065;-55
2021/03/24 08:29:59;;;;;;;9.32;4.63;;;;;;;4.96;53.88;99578.84;3549375;27;20538;-55
2021/03/24 08:32:17;;;;;;;9.95;4.60;;;;;;;5.11;54.74;99582.75;3551614;27;20074;-55
2021/03/24 08:34:09;;;;;;;10.25;4.53;;;;;;;5.18;53.46;99580.47;3548753;27;20066;-57
2021/03/24 08:36:07;;;;;;;8.77;4.47;;;;;;;5.29;54.74;99578.25;3548616;27;21038;-55
2021/03/24 08:38:25;;;;;;;8.50;4.38;;;;;;;5.40;55.16;99588.88;3535335;27;20079;-54